createdAt,value
2023-03-21T00:00:15.788Z,98344.08
2023-03-21T00:03:55.117Z,98343.98
2023-03-21T00:07:45.242Z,98342.89
2023-03-21T00:11:37.623Z,98343.27
2023-03-21T00:15:30.723Z,98344.11
2023-03-21T00:19:04.255Z,98338.30
2023-03-21T00:22:36.933Z,98333.09
2023-03-21T00:26:27.565Z,98328.90
2023-03-21T00:30:18.267Z,98325.30
2023-03-21T00:34:08.227Z,98316.89
2023-03-21T00:37:57.662Z,98314.19
2023-03-21T00:41:47.243Z,98312.74
2023-03-21T00:45:36.684Z,98304.21
2023-03-21T00:49:27.102Z,98298.23
2023-03-21T00:53:16.398Z,98298.31
2023-03-21T00:57:05.818Z,98297.52
2023-03-21T01:00:55.763Z,98295.05
2023-03-21T01:04:35.708Z,98293.12
2023-03-21T01:08:35.182Z,98293.52
2023-03-21T01:12:31.276Z,98293.90
2023-03-21T01:16:24.103Z,98293.32
2023-03-21T01:20:13.581Z,98290.16
2023-03-21T01:24:03.020Z,98292.95
2023-03-21T01:27:53.133Z,98284.75
2023-03-21T01:31:43.379Z,98288.04
2023-03-21T01:35:40.915Z,98284.88
2023-03-21T01:39:38.259Z,98281.27
2023-03-21T01:43:28.311Z,98276.35
2023-03-21T01:47:33.216Z,98269.45
2023-03-21T01:51:19.689Z,98265.03
2023-03-21T01:55:08.987Z,98261.91
2023-03-21T01:58:58.367Z,98263.02
2023-03-21T02:03:11.565Z,98261.59
2023-03-21T02:07:03.887Z,98262.52
2023-03-21T02:10:53.834Z,98262.36
2023-03-21T02:14:48.157Z,98266.45
2023-03-21T02:18:40.218Z,98270.42
2023-03-21T02:22:38.641Z,98266.95
2023-03-21T02:26:45.146Z,98265.69
2023-03-21T02:30:50.801Z,98263.27
2023-03-21T02:34:50.027Z,98254.89
2023-03-21T02:38:45.028Z,98253.55
2023-03-21T02:42:37.016Z,98255.51
